Time;durP1;ratioP1;P1;durP2;ratioP2;P2;SDS_P1;SDS_P2;PMS_P1;PMS_P2;Temp;Humidity;BMP_temperature;BMP_pressure;BME280_temperature;BME280_humidity;BME280_pressure;Samples;Min_cycle;Max_cycle;Signal;HPM_P1;HPM_P2
2021/05/16 00:00:01;;;;;;;1.40;1.30;;;18.60;57.00;;;;;;5052357;28;20589;-64
2021/05/16 00:02:26;;;;;;;1.70;1.60;;;18.60;57.00;;;;;;5051958;28;20225;-64
2021/05/16 00:04:52;;;;;;;2.45;1.60;;;18.60;57.00;;;;;;5052239;28;20182;-63
2021/05/16 00:07:17;;;;;;;1.73;1.63;;;18.70;57.00;;;;;;5052397;28;20519;-63
2021/05/16 00:09:43;;;;;;;1.67;1.58;;;18.60;57.00;;;;;;5033494;28;20709;-63
2021/05/16 00:12:09;;;;;;;1.48;1.38;;;18.60;57.00;;;;;;5052658;28;20178;-62
2021/05/16 00:14:35;;;;;;;1.30;1.20;;;18.70;57.10;;;;;;5052178;28;20186;-64
2021/05/16 00:17:01;;;;;;;1.67;1.38;;;18.60;57.10;;;;;;5051387;28;20171;-64
2021/05/16 00:19:27;;;;;;;1.58;1.48;;;18.60;57.00;;;;;;5052565;28;20177;-64
2021/05/16 00:21:52;;;;;;;1.48;1.38;;;18.60;57.00;;;;;;5051966;28;20167;-64
2021/05/16 00:24:18;;;;;;;1.45;1.35;;;18.60;57.00;;;;;;5051605;28;20531;-64
2021/05/16 00:26:43;;;;;;;1.80;1.70;;;18.60;57.00;;;;;;5051787;28;20630;-63
2021/05/16 00:29:09;;;;;;;1.23;1.20;;;18.60;57.00;;;;;;5051946;28;20230;-63
2021/05/16 00:31:34;;;;;;;2.05;1.70;;;18.60;57.00;;;;;;5051436;28;20175;-63
2021/05/16 00:34:00;;;;;;;1.23;1.10;;;18.60;57.00;;;;;;5052151;28;20180;-63
2021/05/16 00:36:25;;;;;;;1.52;1.42;;;18.50;57.00;;;;;;5052145;28;20174;-63
2021/05/16 00:38:51;;;;;;;2.00;1.40;;;18.60;57.00;;;;;;5051043;28;20205;-63
2021/05/16 00:41:16;;;;;;;1.77;1.35;;;18.50;57.00;;;;;;5052102;28;20182;-63
2021/05/16 00:43:43;;;;;;;1.42;1.33;;;18.60;57.00;;;;;;5051882;28;20533;-64
2021/05/16 00:46:09;;;;;;;1.40;1.30;;;18.50;57.00;;;;;;5051420;28;20225;-63
2021/05/16 00:48:38;;;;;;;1.48;1.38;;;18.60;57.00;;;;;;5051673;28;20219;-64
2021/05/16 00:51:06;;;;;;;1.98;1.63;;;18.60;57.00;;;;;;5051969;28;20179;-64
2021/05/16 00:53:35;;;;;;;1.38;1.27;;;18.60;57.00;;;;;;5051235;28;20665;-63
2021/05/16 00:56:00;;;;;;;1.45;1.35;;;18.60;57.00;;;;;;5051986;28;20179;-63
2021/05/16 00:58:26;;;;;;;1.13;1.10;;;18.60;57.00;;;;;;5051447;28;20191;-63
2021/05/16 01:00:51;;;;;;;1.67;1.40;;;18.50;57.00;;;;;;5051792;28;20170;-63
2021/05/16 01:03:17;;;;;;;2.30;1.70;;;18.50;57.00;;;;;;5055443;28;20167;-63
2021/05/16 01:05:43;;;;;;;1.67;1.58;;;18.50;57.00;;;;;;5054651;28;20167;-63
2021/05/16 01:08:08;;;;;;;1.15;1.08;;;18.50;57.10;;;;;;5055190;28;20202;-63
2021/05/16 01:10:34;;;;;;;1.75;1.27;;;18.50;57.00;;;;;;5055215;28;20173;-63
2021/05/16 01:13:00;;;;;;;1.60;1.50;;;18.50;57.00;;;;;;5054828;28;20175;-62
2021/05/16 01:15:26;;;;;;;1.80;1.70;;;18.50;57.00;;;;;;5055559;28;20270;-63
2021/05/16 01:17:52;;;;;;;1.73;1.63;;;18.50;57.00;;;;;;5055291;28;20526;-63
2021/05/16 01:20:21;;;;;;;1.85;1.23;;;18.50;57.00;;;;;;5054558;28;20672;-63
2021/05/16 01:23:03;;;;;;;1.60;1.50;;;18.50;57.00;;;;;;5054991;28;20171;-63
2021/05/16 01:25:37;;;;;;;1.70;1.40;;;18.50;57.00;;;;;;5055403;28;20175;-63
2021/05/16 01:28:02;;;;;;;1.65;1.45;;;18.40;57.00;;;;;;5054251;28;20207;-62
2021/05/16 01:30:28;;;;;;;2.38;1.40;;;18.50;57.00;;;;;;5055201;28;20179;-63
2021/05/16 01:32:54;;;;;;;1.77;1.67;;;18.50;57.00;;;;;;5054825;28;20174;-63
2021/05/16 01:35:20;;;;;;;1.30;1.20;;;18.50;57.00;;;;;;5054381;28;20510;-64
2021/05/16 01:37:47;;;;;;;1.42;1.33;;;18.40;57.00;;;;;;5054726;28;20179;-63
2021/05/16 01:40:13;;;;;;;2.28;1.77;;;18.50;57.00;;;;;;5055202;28;20228;-64
2021/05/16 01:42:47;;;;;;;1.20;1.10;;;18.40;56.90;;;;;;5053969;28;20262;-64
2021/05/16 01:45:14;;;;;;;1.33;1.23;;;18.50;57.10;;;;;;5054961;28;20178;-64
2021/05/16 01:47:40;;;;;;;1.70;1.38;;;18.40;57.00;;;;;;5053748;28;20179;-63
2021/05/16 01:50:11;;;;;;;2.13;1.67;;;18.40;57.00;;;;;;5054778;28;20179;-63
2021/05/16 01:52:37;;;;;;;1.52;1.40;;;18.40;57.00;;;;;;5054499;28;20171;-64
2021/05/16 01:55:03;;;;;;;1.50;1.40;;;18.40;57.00;;;;;;5036496;28;20186;-63
2021/05/16 01:57:29;;;;;;;2.97;1.52;;;18.40;57.00;;;;;;5054929;28;20179;-64
2021/05/16 01:59:55;;;;;;;1.20;1.10;;;18.40;57.00;;;;;;5054455;28;20507;-64
2021/05/16 02:02:20;;;;;;;1.48;1.38;;;18.40;57.00;;;;;;5053885;28;20175;-64
2021/05/16 02:04:46;;;;;;;1.77;1.50;;;18.40;57.00;;;;;;5054327;28;20262;-64
2021/05/16 02:07:11;;;;;;;1.70;1.30;;;18.40;57.00;;;;;;5036799;28;20175;-63
2021/05/16 02:09:37;;;;;;;2.10;1.73;;;18.40;57.10;;;;;;5053443;28;20238;-63
2021/05/16 02:12:03;;;;;;;1.85;1.40;;;18.40;57.00;;;;;;5036661;28;20618;-63
2021/05/16 02:14:30;;;;;;;2.28;1.67;;;18.40;57.10;;;;;;5053111;28;20179;-63
2021/05/16 02:16:56;;;;;;;2.38;1.67;;;18.40;57.10;;;;;;5053529;28;20179;-63
2021/05/16 02:19:22;;;;;;;2.58;1.80;;;18.40;57.10;;;;;;5054330;28;20186;-64
2021/05/16 02:21:47;;;;;;;2.25;1.60;;;18.40;57.10;;;;;;5053687;28;20167;-63
2021/05/16 02:24:13;;;;;;;2.40;1.50;;;18.40;57.10;;;;;;5053640;28;20289;-63
2021/05/16 02:26:39;;;;;;;1.88;1.63;;;18.30;57.10;;;;;;5053901;28;20177;-62
2021/05/16 02:29:05;;;;;;;3.17;1.55;;;18.40;57.10;;;;;;5053822;28;20628;-63
2021/05/16 02:31:30;;;;;;;2.28;1.42;;;18.40;57.20;;;;;;5053192;28;20277;-63
2021/05/16 02:33:56;;;;;;;2.28;1.92;;;18.40;57.10;;;;;;5036290;28;20693;-63
2021/05/16 02:36:21;;;;;;;2.80;1.60;;;18.30;57.10;;;;;;5053825;28;20198;-63
2021/05/16 02:38:47;;;;;;;3.65;1.70;;;18.30;57.10;;;;;;5052685;28;20533;-63
2021/05/16 02:41:12;;;;;;;1.60;1.50;;;18.30;57.10;;;;;;5053747;28;20618;-63
2021/05/16 02:43:38;;;;;;;1.65;1.52;;;18.30;57.10;;;;;;5053299;28;20179;-63
2021/05/16 02:46:03;;;;;;;1.83;1.50;;;18.30;57.10;;;;;;5053338;28;20177;-63
2021/05/16 02:48:29;;;;;;;2.78;1.65;;;18.30;57.10;;;;;;5053868;28;20206;-64
2021/05/16 02:50:54;;;;;;;2.17;1.67;;;18.30;57.10;;;;;;5052623;28;20171;-63
2021/05/16 02:53:21;;;;;;;3.88;1.85;;;18.30;57.10;;;;;;5053526;28;20630;-64
2021/05/16 02:55:49;;;;;;;2.22;1.50;;;18.30;57.10;;;;;;5053025;28;20683;-64
2021/05/16 02:58:15;;;;;;;2.38;1.50;;;18.30;57.10;;;;;;5052732;28;20175;-64
2021/05/16 03:00:41;;;;;;;2.80;1.45;;;18.30;57.10;;;;;;5053351;28;20197;-63
2021/05/16 03:03:06;;;;;;;1.90;1.50;;;18.30;57.10;;;;;;5053387;28;20179;-64
2021/05/16 03:05:32;;;;;;;4.10;1.50;;;18.30;57.10;;;;;;5052349;28;20618;-64
2021/05/16 03:07:57;;;;;;;2.28;1.70;;;18.30;57.10;;;;;;5053009;28;20209;-64
2021/05/16 03:10:23;;;;;;;1.77;1.58;;;18.30;57.10;;;;;;5053433;28;20266;-63
2021/05/16 03:12:48;;;;;;;2.90;1.60;;;18.30;57.10;;;;;;5052187;28;20262;-63
2021/05/16 03:15:14;;;;;;;1.63;1.40;;;18.30;57.10;;;;;;5053056;28;20633;-63
2021/05/16 03:17:40;;;;;;;3.60;2.05;;;18.30;57.10;;;;;;5053089;28;20179;-64
2021/05/16 03:20:06;;;;;;;2.20;1.70;;;18.30;57.10;;;;;;5052359;28;20213;-64
2021/05/16 03:22:32;;;;;;;2.58;1.75;;;18.30;57.10;;;;;;5052997;28;20175;-64
2021/05/16 03:24:57;;;;;;;1.92;1.55;;;18.30;57.10;;;;;;5052662;28;20685;-63
2021/05/16 03:27:23;;;;;;;2.58;1.60;;;18.20;57.00;;;;;;5052167;28;20626;-63
2021/05/16 03:29:48;;;;;;;2.38;1.95;;;18.20;57.10;;;;;;5052285;28;20230;-63
2021/05/16 03:32:14;;;;;;;3.53;2.42;;;18.30;57.10;;;;;;5053120;28;20182;-63
2021/05/16 03:34:39;;;;;;;3.35;1.60;;;18.30;57.20;;;;;;5052050;28;20171;-64
2021/05/16 03:37:05;;;;;;;2.15;1.75;;;18.20;57.10;;;;;;5052732;28;20246;-64
2021/05/16 03:39:30;;;;;;;3.58;1.85;;;18.20;57.10;;;;;;5052823;28;20175;-64
2021/05/16 03:41:56;;;;;;;4.30;2.05;;;18.20;57.10;;;;;;5051932;28;20178;-64
2021/05/16 03:44:23;;;;;;;3.00;1.60;;;18.20;57.10;;;;;;5052610;28;20197;-64
2021/05/16 03:46:48;;;;;;;2.60;1.80;;;18.20;57.00;;;;;;5052394;28;20263;-64
2021/05/16 03:49:16;;;;;;;2.20;1.65;;;18.20;57.10;;;;;;5052053;28;20302;-64
2021/05/16 03:51:42;;;;;;;2.80;1.90;;;18.20;57.40;;;;;;5052369;28;20228;-63
2021/05/16 03:54:07;;;;;;;4.63;2.15;;;18.20;57.10;;;;;;5051793;28;20206;-64
2021/05/16 03:56:35;;;;;;;2.38;1.98;;;18.20;57.10;;;;;;5052219;28;20257;-63
2021/05/16 03:59:01;;;;;;;2.83;1.90;;;18.20;57.00;;;;;;5052290;28;20171;-64
2021/05/16 04:01:27;;;;;;;3.50;1.83;;;18.20;57.10;;;;;;5052005;28;20262;-63
2021/05/16 04:03:52;;;;;;;4.22;2.38;;;18.20;57.10;;;;;;5052331;28;20289;-64
2021/05/16 04:06:18;;;;;;;2.55;1.70;;;18.20;57.20;;;;;;5052551;28;20178;-63
2021/05/16 04:08:43;;;;;;;3.35;1.60;;;18.20;57.10;;;;;;5051340;28;20233;-63
2021/05/16 04:11:09;;;;;;;4.63;2.13;;;18.20;57.20;;;;;;5052503;28;20225;-63
2021/05/16 04:13:34;;;;;;;3.22;2.05;;;18.20;57.10;;;;;;5051967;28;20178;-63
2021/05/16 04:16:00;;;;;;;3.65;1.85;;;18.20;57.20;;;;;;5051782;28;20173;-63
2021/05/16 04:18:26;;;;;;;4.70;2.25;;;18.20;57.10;;;;;;5034591;28;20189;-64
2021/05/16 04:20:52;;;;;;;3.90;1.88;;;18.10;57.10;;;;;;5051883;28;20175;-64
2021/05/16 04:23:18;;;;;;;4.05;1.98;;;18.20;57.10;;;;;;5051653;28;20542;-64
2021/05/16 04:25:43;;;;;;;2.80;1.70;;;18.20;57.10;;;;;;5052030;28;20603;-64
2021/05/16 04:28:09;;;;;;;4.57;2.05;;;18.20;57.10;;;;;;5051990;28;20746;-64
2021/05/16 04:30:34;;;;;;;2.35;1.77;;;18.20;57.10;;;;;;5051520;28;20282;-63
2021/05/16 04:33:00;;;;;;;2.95;1.70;;;18.20;57.10;;;;;;5052459;28;20185;-63
2021/05/16 04:35:25;;;;;;;4.93;1.75;;;18.20;57.10;;;;;;5052351;28;20213;-64
2021/05/16 04:37:51;;;;;;;2.15;1.95;;;18.20;57.20;;;;;;5054096;28;20167;-64
2021/05/16 04:40:16;;;;;;;4.70;2.08;;;18.20;57.10;;;;;;5056102;28;20280;-64
2021/05/16 04:42:42;;;;;;;1.92;1.77;;;18.20;57.10;;;;;;5055615;28;20179;-64
2021/05/16 04:45:08;;;;;;;2.33;1.85;;;18.10;57.10;;;;;;5055385;28;20172;-64
2021/05/16 04:47:34;;;;;;;4.63;2.10;;;18.10;57.10;;;;;;5055762;28;20183;-64
2021/05/16 04:50:00;;;;;;;4.15;2.25;;;18.10;57.10;;;;;;5055681;28;20187;-64
2021/05/16 04:52:25;;;;;;;3.10;1.95;;;18.20;57.00;;;;;;5055215;28;20218;-63
2021/05/16 04:54:51;;;;;;;2.88;1.58;;;18.10;57.00;;;;;;5055419;28;20211;-63
2021/05/16 04:57:16;;;;;;;5.65;2.88;;;18.20;57.10;;;;;;5055387;28;20258;-64
2021/05/16 04:59:42;;;;;;;2.13;1.80;;;18.10;57.00;;;;;;5055268;28;20250;-64
2021/05/16 05:02:07;;;;;;;2.25;1.83;;;18.10;57.00;;;;;;5055688;28;20171;-64
2021/05/16 05:04:36;;;;;;;5.30;2.65;;;18.10;57.10;;;;;;5054665;28;20175;-64
2021/05/16 05:07:04;;;;;;;3.00;1.88;;;18.10;57.10;;;;;;5055862;28;20175;-63
2021/05/16 05:09:29;;;;;;;3.50;2.20;;;18.10;57.10;;;;;;5055450;28;20695;-63
2021/05/16 05:11:55;;;;;;;3.80;2.33;;;18.10;57.00;;;;;;5054190;28;20179;-63
2021/05/16 05:14:20;;;;;;;3.30;2.30;;;18.10;57.10;;;;;;5055632;28;20179;-63
2021/05/16 05:16:46;;;;;;;4.95;2.38;;;18.10;57.10;;;;;;5055524;28;20171;-64
2021/05/16 05:19:11;;;;;;;4.43;2.05;;;18.10;57.10;;;;;;5054552;28;20233;-64
2021/05/16 05:21:37;;;;;;;2.75;1.77;;;18.10;57.10;;;;;;5055005;28;20752;-64
2021/05/16 05:24:02;;;;;;;4.68;2.00;;;18.10;57.10;;;;;;5055140;28;20606;-64
2021/05/16 05:26:28;;;;;;;4.15;2.45;;;18.10;57.10;;;;;;5054493;28;20264;-63
2021/05/16 05:28:53;;;;;;;4.32;2.08;;;18.10;57.10;;;;;;5054421;28;20595;-63
2021/05/16 05:31:19;;;;;;;4.20;2.20;;;18.10;57.10;;;;;;5055113;28;20176;-64
2021/05/16 05:33:44;;;;;;;4.55;2.20;;;18.10;57.10;;;;;;5054048;28;20174;-63
2021/05/16 05:36:11;;;;;;;3.53;2.25;;;18.10;57.10;;;;;;5055121;28;20228;-64
2021/05/16 05:38:37;;;;;;;4.15;2.33;;;18.10;57.10;;;;;;5054683;28;20183;-64
2021/05/16 05:41:02;;;;;;;4.80;2.80;;;18.10;57.10;;;;;;5054157;28;20175;-64
2021/05/16 05:43:28;;;;;;;3.22;2.22;;;18.10;57.00;;;;;;5055125;28;20167;-64
2021/05/16 05:45:53;;;;;;;2.83;1.90;;;18.10;57.00;;;;;;5054763;28;20171;-64
2021/05/16 05:48:19;;;;;;;3.50;2.28;;;18.10;57.10;;;;;;5054028;28;20282;-64
2021/05/16 05:50:44;;;;;;;3.72;2.10;;;18.00;57.10;;;;;;5054333;28;20206;-63
2021/05/16 05:53:10;;;;;;;4.20;2.42;;;18.10;57.20;;;;;;5054740;28;20683;-64
2021/05/16 05:55:35;;;;;;;3.90;2.15;;;18.10;57.10;;;;;;5053625;28;20175;-63
2021/05/16 05:58:01;;;;;;;6.50;2.75;;;18.10;57.20;;;;;;5054751;28;20179;-64
2021/05/16 06:00:29;;;;;;;5.28;2.50;;;18.10;57.20;;;;;;5054693;28;20182;-64
2021/05/16 06:02:56;;;;;;;3.42;2.38;;;18.10;57.20;;;;;;5053578;28;20186;-64
2021/05/16 06:05:22;;;;;;;3.83;2.40;;;18.00;57.10;;;;;;5054502;28;20187;-64
2021/05/16 06:07:47;;;;;;;5.15;2.55;;;18.10;57.20;;;;;;5053198;28;20175;-63
2021/05/16 06:10:13;;;;;;;4.15;2.50;;;18.10;57.10;;;;;;5054269;28;20258;-63
2021/05/16 06:12:38;;;;;;;5.30;2.70;;;18.10;57.10;;;;;;5054197;28;20261;-63
2021/05/16 06:15:04;;;;;;;5.30;3.03;;;18.10;57.10;;;;;;5053653;28;20179;-63
2021/05/16 06:17:30;;;;;;;3.47;2.40;;;18.10;57.10;;;;;;5054548;28;20171;-64
2021/05/16 06:19:55;;;;;;;4.82;2.80;;;18.10;57.10;;;;;;5053996;28;20171;-64
2021/05/16 06:22:21;;;;;;;4.68;2.60;;;18.10;57.10;;;;;;5053554;28;20645;-64
2021/05/16 06:24:47;;;;;;;4.07;2.30;;;18.10;57.10;;;;;;5053534;28;20203;-64
2021/05/16 06:27:12;;;;;;;3.83;2.20;;;18.10;57.10;;;;;;5054222;28;20171;-64
2021/05/16 06:29:38;;;;;;;3.72;2.80;;;18.10;57.10;;;;;;5052906;28;20234;-63
2021/05/16 06:32:07;;;;;;;5.38;2.65;;;18.10;57.20;;;;;;5054004;28;20186;-64
2021/05/16 06:34:33;;;;;;;6.10;2.83;;;18.10;57.20;;;;;;5053759;28;20187;-64
2021/05/16 06:36:58;;;;;;;5.57;2.83;;;18.10;57.10;;;;;;5053220;28;20182;-64
2021/05/16 06:39:27;;;;;;;4.90;2.95;;;18.10;57.10;;;;;;5053639;28;20213;-64
2021/05/16 06:41:52;;;;;;;4.40;2.92;;;18.10;57.00;;;;;;5053421;28;20172;-64
2021/05/16 06:44:18;;;;;;;5.15;3.13;;;18.10;57.10;;;;;;5053162;28;20177;-65
2021/05/16 06:46:43;;;;;;;3.58;2.92;;;18.20;57.10;;;;;;5053357;28;20167;-64
2021/05/16 06:49:09;;;;;;;4.95;2.50;;;18.10;57.20;;;;;;5053540;28;20207;-64
2021/05/16 06:51:37;;;;;;;5.72;2.83;;;18.10;57.20;;;;;;5052554;28;20175;-64
2021/05/16 06:54:04;;;;;;;2.97;2.47;;;18.10;57.10;;;;;;5053643;28;20736;-64
2021/05/16 06:56:29;;;;;;;5.13;2.78;;;18.10;57.20;;;;;;5053861;28;20186;-64
2021/05/16 06:58:55;;;;;;;7.18;3.42;;;18.10;57.10;;;;;;5051801;28;20175;-65
2021/05/16 07:01:21;;;;;;;4.03;2.80;;;18.10;57.10;;;;;;5053074;28;20529;-64
2021/05/16 07:03:46;;;;;;;6.38;3.03;;;18.20;57.20;;;;;;5052776;28;20191;-65
2021/05/16 07:06:12;;;;;;;4.78;2.88;;;18.20;57.10;;;;;;5052545;28;20179;-64
2021/05/16 07:08:37;;;;;;;3.72;2.90;;;18.20;57.20;;;;;;5053083;28;20218;-64
2021/05/16 07:11:03;;;;;;;3.95;2.88;;;18.20;57.20;;;;;;5052521;28;20175;-64
2021/05/16 07:13:28;;;;;;;4.13;2.97;;;18.20;57.10;;;;;;5053223;28;20246;-64
2021/05/16 07:15:54;;;;;;;5.38;2.92;;;18.20;57.10;;;;;;5052612;28;20175;-64
2021/05/16 07:18:19;;;;;;;3.53;2.40;;;18.20;57.10;;;;;;5052537;28;20183;-64
2021/05/16 07:20:45;;;;;;;6.47;3.03;;;18.20;57.10;;;;;;5052664;28;20178;-64
2021/05/16 07:23:10;;;;;;;6.55;3.35;;;18.20;57.20;;;;;;5053009;28;20175;-64
2021/05/16 07:25:36;;;;;;;4.30;2.83;;;18.20;57.00;;;;;;5052099;28;20225;-64
2021/05/16 07:28:01;;;;;;;5.47;2.75;;;18.30;57.10;;;;;;5053124;28;20249;-64
2021/05/16 07:30:27;;;;;;;3.97;3.08;;;18.20;57.10;;;;;;5052810;28;20223;-64
2021/05/16 07:32:53;;;;;;;4.40;3.05;;;18.30;57.10;;;;;;5051881;28;20232;-64
2021/05/16 07:35:19;;;;;;;5.40;2.50;;;18.30;57.00;;;;;;5052880;28;20210;-64
2021/05/16 07:37:45;;;;;;;8.55;3.28;;;18.30;57.00;;;;;;5052530;28;20282;-64
2021/05/16 07:40:11;;;;;;;3.97;2.80;;;18.30;57.00;;;;;;5052303;28;20273;-64
2021/05/16 07:42:37;;;;;;;3.97;2.72;;;18.20;57.00;;;;;;5052556;28;20705;-65
2021/05/16 07:45:04;;;;;;;4.30;2.72;;;18.20;57.00;;;;;;5052676;28;20179;-65
2021/05/16 07:47:29;;;;;;;3.95;3.03;;;18.20;57.10;;;;;;5052022;28;20186;-65
2021/05/16 07:49:55;;;;;;;6.72;2.63;;;18.20;57.00;;;;;;5052217;28;20290;-65
2021/05/16 07:52:21;;;;;;;7.68;3.33;;;18.30;57.10;;;;;;5052591;28;20540;-64
2021/05/16 07:54:46;;;;;;;3.75;2.80;;;18.30;57.10;;;;;;5051551;28;20190;-64
2021/05/16 07:57:12;;;;;;;4.20;2.90;;;18.30;57.10;;;;;;5052686;28;20646;-65
2021/05/16 07:59:38;;;;;;;3.67;2.80;;;18.30;57.10;;;;;;5052148;28;20512;-68
2021/05/16 08:02:06;;;;;;;4.07;2.90;;;18.20;57.00;;;;;;5051880;28;20536;-63
2021/05/16 08:04:32;;;;;;;3.90;2.83;;;18.20;57.20;;;;;;5052067;28;20179;-63
2021/05/16 08:06:57;;;;;;;6.43;3.72;;;18.20;57.10;;;;;;5052417;28;20258;-63
2021/05/16 08:09:23;;;;;;;5.07;2.90;;;18.20;57.00;;;;;;5051934;28;20214;-67
2021/05/16 08:11:49;;;;;;;5.82;3.20;;;18.20;57.10;;;;;;5055421;28;20633;-67
2021/05/16 08:14:14;;;;;;;3.83;3.10;;;18.30;57.20;;;;;;5056157;28;20182;-68
2021/05/16 08:16:41;;;;;;;5.32;3.30;;;18.30;57.10;;;;;;5056435;28;20660;-68
2021/05/16 08:19:06;;;;;;;6.78;3.88;;;18.30;57.30;;;;;;5056261;28;20187;-68
2021/05/16 08:21:33;;;;;;;5.30;3.03;;;18.20;57.20;;;;;;5055445;28;20518;-67
2021/05/16 08:23:59;;;;;;;7.18;3.47;;;18.30;57.30;;;;;;5056370;28;20171;-68
2021/05/16 08:26:24;;;;;;;7.10;3.28;;;18.30;57.30;;;;;;5056307;28;20537;-67
2021/05/16 08:28:50;;;;;;;8.25;3.78;;;18.30;57.30;;;;;;5054519;28;20231;-67
2021/05/16 08:31:15;;;;;;;4.20;3.30;;;18.30;57.30;;;;;;5056470;28;20649;-67
2021/05/16 08:33:41;;;;;;;7.00;3.10;;;18.40;57.30;;;;;;5056262;28;20183;-67
2021/05/16 08:36:06;;;;;;;6.15;3.78;;;18.40;57.20;;;;;;5055313;28;20217;-67
2021/05/16 08:38:32;;;;;;;7.55;4.38;;;18.40;57.20;;;;;;5056124;28;20260;-67
2021/05/16 08:40:58;;;;;;;5.28;3.40;;;18.40;57.30;;;;;;5056169;28;20170;-67
2021/05/16 08:43:23;;;;;;;7.22;3.83;;;18.40;57.30;;;;;;5037576;28;20175;-67
2021/05/16 08:45:48;;;;;;;4.68;3.13;;;18.40;57.20;;;;;;5055724;28;20258;-67
2021/05/16 08:48:14;;;;;;;7.68;3.78;;;18.40;57.20;;;;;;5055869;28;20203;-67
2021/05/16 08:50:39;;;;;;;5.00;3.22;;;18.40;57.10;;;;;;5054764;28;20171;-67
2021/05/16 08:53:07;;;;;;;6.78;3.60;;;18.40;57.00;;;;;;5055814;28;20198;-66
2021/05/16 08:55:36;;;;;;;6.70;3.50;;;18.50;56.90;;;;;;5055747;28;20301;-66
2021/05/16 08:58:01;;;;;;;9.48;4.00;;;18.40;56.80;;;;;;5054979;28;20174;-67
2021/05/16 09:00:27;;;;;;;7.15;4.05;;;18.40;56.90;;;;;;5056000;28;20522;-67
2021/05/16 09:03:10;;;;;;;5.07;3.78;;;18.40;57.10;;;;;;5055414;28;20268;-67
2021/05/16 09:05:45;;;;;;;5.43;3.80;;;18.40;57.30;;;;;;5054824;28;20187;-67
2021/05/16 09:08:12;;;;;;;8.18;3.90;;;18.50;57.10;;;;;;5055654;28;20576;-67
2021/05/16 09:10:39;;;;;;;5.82;3.42;;;18.60;56.80;;;;;;5055023;28;20178;-66
2021/05/16 09:13:17;;;;;;;5.95;3.40;;;18.60;56.60;;;;;;5055724;28;20198;-67
2021/05/16 09:16:00;;;;;;;7.18;3.88;;;18.60;56.80;;;;;;5055400;28;20175;-67
2021/05/16 09:18:50;;;;;;;6.97;4.00;;;18.50;56.90;;;;;;5054691;28;20665;-67
2021/05/16 09:21:29;;;;;;;7.13;3.92;;;18.50;57.00;;;;;;5055350;28;20191;-66
2021/05/16 09:24:05;;;;;;;4.93;3.63;;;18.50;57.00;;;;;;5054216;28;20175;-65
2021/05/16 09:26:38;;;;;;;6.40;4.18;;;18.60;57.00;;;;;;5054431;28;20181;-64
2021/05/16 09:29:28;;;;;;;7.65;4.63;;;18.50;57.00;;;;;;5037080;28;20246;-65
2021/05/16 09:31:55;;;;;;;8.65;4.22;;;18.60;56.80;;;;;;5054232;28;20265;-65
2021/05/16 09:34:20;;;;;;;8.15;4.15;;;18.60;57.30;;;;;;5055841;28;20254;-67
2021/05/16 09:36:46;;;;;;;6.55;4.55;;;18.70;56.60;;;;;;5060411;28;20209;-67
2021/05/16 09:39:25;;;;;;;7.97;5.30;;;18.80;56.60;;;;;;5054419;28;20591;-68
2021/05/16 09:42:13;;;;;;;8.05;4.78;;;18.80;56.60;;;;;;5054854;28;20210;-68
2021/05/16 09:44:46;;;;;;;8.68;5.47;;;18.80;56.80;;;;;;5054871;28;20171;-69
2021/05/16 09:47:26;;;;;;;8.55;4.75;;;18.80;57.10;;;;;;5054495;28;20176;-68
2021/05/16 09:49:59;;;;;;;8.55;4.75;;;18.90;56.70;;;;;;5054444;28;20623;-68
2021/05/16 09:52:32;;;;;;;9.32;4.70;;;18.90;56.70;;;;;;5054981;28;20172;-66
2021/05/16 09:55:07;;;;;;;6.20;4.50;;;18.90;57.00;;;;;;5053924;28;20179;-70
2021/05/16 09:57:34;;;;;;;7.10;4.80;;;19.00;57.80;;;;;;5054610;28;20181;-66
2021/05/16 10:00:00;;;;;;;7.90;5.18;;;19.00;57.20;;;;;;5053998;28;20183;-66
2021/05/16 10:02:27;;;;;;;8.98;4.85;;;19.10;57.10;;;;;;5054659;28;20235;-66
2021/05/16 10:04:58;;;;;;;7.07;5.00;;;19.20;56.90;;;;;;5054095;28;20580;-66
2021/05/16 10:07:24;;;;;;;11.68;4.53;;;19.10;56.90;;;;;;5053780;28;20175;-65
2021/05/16 10:09:53;;;;;;;6.13;5.35;;;19.10;57.20;;;;;;5053918;28;20685;-64
2021/05/16 10:12:19;;;;;;;8.57;5.35;;;19.20;57.20;;;;;;5054507;28;20270;-65
2021/05/16 10:15:02;;;;;;;7.80;5.20;;;19.30;57.00;;;;;;5053371;28;20255;-65
2021/05/16 10:17:29;;;;;;;6.97;4.55;;;19.40;56.90;;;;;;5038356;28;20171;-65
2021/05/16 10:19:54;;;;;;;7.60;4.97;;;19.50;56.80;;;;;;5036062;28;20220;-66
2021/05/16 10:22:27;;;;;;;7.82;4.63;;;19.50;56.80;;;;;;5035667;28;20175;-65
2021/05/16 10:24:54;;;;;;;8.77;4.55;;;19.50;56.90;;;;;;5036336;28;20698;-65
2021/05/16 10:27:26;;;;;;;9.32;4.75;;;19.50;57.00;;;;;;5054212;28;20187;-64
2021/05/16 10:29:53;;;;;;;6.55;4.38;;;19.60;56.90;;;;;;5052728;28;20257;-64
2021/05/16 10:32:26;;;;;;;7.22;4.90;;;19.60;56.90;;;;;;5036278;28;20261;-64
2021/05/16 10:34:55;;;;;;;6.10;4.60;;;19.60;57.20;;;;;;5052402;28;20652;-66
2021/05/16 10:37:47;;;;;;;6.70;4.57;;;19.60;57.40;;;;;;5054227;28;20178;-62
2021/05/16 10:40:19;;;;;;;16.33;5.00;;;19.50;57.50;;;;;;5053977;28;20606;-62
2021/05/16 10:42:44;;;;;;;7.15;4.70;;;19.50;57.60;;;;;;5052655;28;20167;-63
2021/05/16 10:45:22;;;;;;;7.57;4.28;;;19.40;58.30;;;;;;5053700;28;20622;-63
2021/05/16 10:47:52;;;;;;;5.30;4.20;;;19.50;57.70;;;;;;5053402;28;20174;-63
2021/05/16 10:50:24;;;;;;;7.15;4.63;;;19.50;57.50;;;;;;5052984;28;20187;-63
2021/05/16 10:52:59;;;;;;;8.63;4.40;;;19.50;57.60;;;;;;5053274;28;20185;-63
2021/05/16 10:55:25;;;;;;;9.55;4.68;;;19.40;57.60;;;;;;5053511;28;20170;-63
2021/05/16 10:57:51;;;;;;;5.68;4.07;;;19.40;57.60;;;;;;5052494;28;20175;-63
2021/05/16 11:00:19;;;;;;;6.55;4.60;;;19.50;57.60;;;;;;5053732;28;20181;-63
2021/05/16 11:03:07;;;;;;;7.05;4.03;;;19.50;57.50;;;;;;5053111;28;20171;-63
2021/05/16 11:05:48;;;;;;;6.47;3.80;;;19.50;57.40;;;;;;5053108;28;20179;-63
2021/05/16 11:08:19;;;;;;;6.63;4.07;;;19.60;57.30;;;;;;5053328;28;20235;-64
2021/05/16 11:10:45;;;;;;;6.95;3.83;;;19.60;57.30;;;;;;5052256;28;20175;-63
2021/05/16 11:13:17;;;;;;;4.45;3.90;;;19.60;57.20;;;;;;5053346;28;20645;-64
2021/05/16 11:15:46;;;;;;;5.32;3.97;;;19.60;57.30;;;;;;5052860;28;20187;-64
2021/05/16 11:18:16;;;;;;;6.28;4.03;;;19.50;57.50;;;;;;5052418;28;20637;-64
2021/05/16 11:20:42;;;;;;;8.85;4.30;;;19.40;57.50;;;;;;5052737;28;20239;-65
2021/05/16 11:23:08;;;;;;;8.00;4.03;;;19.40;57.60;;;;;;5053162;28;20203;-64
2021/05/16 11:25:33;;;;;;;7.40;3.78;;;19.40;57.50;;;;;;5052109;28;20679;-63
2021/05/16 11:27:59;;;;;;;7.22;3.55;;;19.40;57.40;;;;;;5052878;28;20202;-63
2021/05/16 11:30:27;;;;;;;5.13;4.00;;;19.50;57.40;;;;;;5052865;28;20227;-62
2021/05/16 11:32:53;;;;;;;5.10;3.60;;;19.60;57.20;;;;;;5051670;28;20189;-63
2021/05/16 11:35:20;;;;;;;4.97;3.90;;;19.60;57.40;;;;;;5052773;28;20179;-63
2021/05/16 11:37:51;;;;;;;6.95;4.32;;;19.50;57.40;;;;;;5052550;28;20305;-62
2021/05/16 11:40:32;;;;;;;6.80;3.75;;;19.40;57.50;;;;;;5052271;28;20256;-65
2021/05/16 11:43:06;;;;;;;6.80;3.33;;;19.40;57.70;;;;;;5052755;28;20170;-68
2021/05/16 11:45:36;;;;;;;7.53;3.60;;;19.60;57.60;;;;;;5051307;28;20171;-67
2021/05/16 11:48:01;;;;;;;7.63;3.90;;;19.70;57.30;;;;;;5052915;28;20445;-68
2021/05/16 11:50:37;;;;;;;8.45;3.60;;;19.70;57.30;;;;;;5052868;28;20265;-67
2021/05/16 11:53:03;;;;;;;8.93;3.80;;;19.60;57.40;;;;;;5052061;28;20179;-67
2021/05/16 11:55:28;;;;;;;5.80;3.75;;;19.50;57.50;;;;;;5052626;28;20201;-67
2021/05/16 11:57:54;;;;;;;4.75;3.80;;;19.50;57.60;;;;;;5034510;28;20171;-68
2021/05/16 12:00:20;;;;;;;6.82;4.32;;;19.40;57.80;;;;;;5034265;28;20170;-68
2021/05/16 12:02:45;;;;;;;6.45;4.00;;;19.30;58.00;;;;;;5034679;28;20175;-68
2021/05/16 12:05:24;;;;;;;5.22;3.40;;;19.20;58.00;;;;;;5052665;28;20491;-70
2021/05/16 12:07:50;;;;;;;6.63;3.70;;;19.20;58.10;;;;;;5034774;28;20712;-71
2021/05/16 12:10:19;;;;;;;4.65;3.88;;;19.10;58.10;;;;;;5052449;28;20187;-70
2021/05/16 12:12:45;;;;;;;8.93;3.72;;;19.10;58.40;;;;;;5052116;28;20224;-70
2021/05/16 12:15:11;;;;;;;6.00;3.67;;;19.10;58.30;;;;;;5051811;28;20270;-71
2021/05/16 12:17:37;;;;;;;6.13;3.25;;;19.10;58.40;;;;;;5034168;28;20203;-71
2021/05/16 12:20:04;;;;;;;6.93;3.38;;;19.10;58.40;;;;;;5052454;28;20182;-73
2021/05/16 12:22:36;;;;;;;4.30;3.13;;;19.20;58.40;;;;;;5051767;28;20281;-72
2021/05/16 12:25:03;;;;;;;5.97;3.28;;;19.20;58.40;;;;;;5052182;28;20690;-71
2021/05/16 12:27:29;;;;;;;6.10;3.42;;;19.20;58.20;;;;;;5051483;28;20262;-71
2021/05/16 12:29:54;;;;;;;5.22;3.50;;;19.30;58.20;;;;;;5051832;28;20286;-71
2021/05/16 12:32:25;;;;;;;3.88;3.17;;;19.30;58.00;;;;;;5034428;28;20171;-71
2021/05/16 12:34:50;;;;;;;4.65;3.35;;;19.40;58.10;;;;;;5051119;28;20218;-71
2021/05/16 12:37:18;;;;;;;6.30;3.40;;;19.40;58.00;;;;;;5034413;28;20171;-72
2021/05/16 12:39:58;;;;;;;4.57;3.08;;;19.50;58.00;;;;;;5051471;28;20614;-71
2021/05/16 12:42:30;;;;;;;6.78;3.55;;;19.60;57.80;;;;;;5051330;28;20660;-72
2021/05/16 12:45:17;;;;;;;5.00;3.10;;;19.60;57.70;;;;;;5052167;28;20181;-71
2021/05/16 12:48:00;;;;;;;4.65;3.08;;;19.70;57.50;;;;;;5037762;28;20187;-70